Twenthe, Netherlands
Current Conditions -  °F | °C
As of 12:20 AM on Wednesday 26 Nov 2014 (Local Time) from EDDG Reporting Station
Clear Clear  
Wind Chill: 34°   Ceiling: Unl
Heat Index: 41°   Visibility: 6mi
Dew Point: 37°   Wind: 13mph
Humidity: 87%   Direction: 100°E
Pressure: 30.18"   Gusts: NA
Location:  52.27°N, 6.9°E
Report Text: EDDG 252320Z 10011KT CAVOK 05/03 Q1022 NOSIG
Loading
Personal Weather Stations






























Interactive Weather Map New forecast layout! Learn more

10-Day Weather Forecast

Advertisements
Track Severe Weather on mobile